Failaka Island, Kuwait

1:21 AM AST on February 06, 2016 (GMT +0300)
salwa | | Change Station
CLOSE
Current Station
Personal Weather Station
Location: Salwa, HAWALLY GOVERNORATE
Elevation: 33 ft
Nearby Weather Stations

Elev 33 ft 29.30 °N, 48.08 °E | Updated 8 minutes ago

Clear
Clear
53.8 °F
Feels Like 53.8 °F
N
6.3
Wind Variable Wind from WSW

Today
High -- | Low -- °F
--% Chance of Precip.
Yesterday
High -- | Low -- °F
Precip. -- in
Pressure 30.18 in
Visibility 4.3 miles
Clouds Clear
Dew Point 41 °F
Humidity 61%
Rainfall 0.00 in
Snow Depth Not available.
6:33 AM 5:28 PM
Waning Crescent, 9% visible
METAR OKBK 052200Z 16004KT 7000 SKC 07/04 Q1022 NOSIG
Pressure 30.18 in
Visibility 4.3 miles
Clouds Clear
Dew Point 41 °F
Humidity 61%
Rainfall 0.00 in
Snow Depth Not available.
6:33 AM 5:28 PM
Waning Crescent, 9% visible
METAR OKBK 052200Z 16004KT 7000 SKC 07/04 Q1022 NOSIG

10-Day Weather Forecast

No radar image for this location.
×

Almanac

Astronomy

Feb. 06, 2016 Rise Set
Actual Time
Civil Twilight
Nautical Twilight
Astronomical Twilight
Moon
Length of Visible Light
Length of Day
Tomorrow will be .
, % of the Moon is Illuminated

Today's Extremes

Country Highs Country Lows

Community

WunderPhotos

Upload Photos

1,890,878 photos uploaded!

WunderBlog® & News

Nearby

Air Quality

  Air Quality AQ Index Pollutant
Not available.

Snow Depth

Station Depth Elevation

Earthquake Activity

City Distance Mag. Time & Date
Minimum magnitude displayed is 2.5.

Coastal Water Temperatures

Place Temperature

Stations

Nearby Weather Stations

Station Location Temp. Windchill Dew Point Humidity Wind Precip. Elev Updated Type